Time;durP1;ratioP1;P1;durP2;ratioP2;P2;SDS_P1;SDS_P2;PMS_P1;PMS_P2;Temp;Humidity;BMP_temperature;BMP_pressure;BME280_temperature;BME280_humidity;BME280_pressure;Samples;Min_cycle;Max_cycle;Signal;HPM_P1;HPM_P2
2021/04/28 00:00:32;;;;;;;3.80;1.63;;;;;;;19.03;30.06;100831.25;4160582;28;20037;-63
2021/04/28 00:02:33;;;;;;;2.80;1.20;;;;;;;19.01;29.94;100828.75;4162398;28;20142;-63
2021/04/28 00:04:34;;;;;;;2.50;1.52;;;;;;;19.08;29.97;100834.03;4166920;28;20033;-63
2021/04/28 00:06:34;;;;;;;2.10;1.27;;;;;;;18.87;30.19;100825.72;4160856;28;20038;-63
2021/04/28 00:08:35;;;;;;;3.85;1.30;;;;;;;18.94;30.06;100827.38;4160048;28;20025;-64
2021/04/28 00:10:38;;;;;;;2.00;1.48;;;;;;;18.87;30.13;100811.88;4160886;28;20041;-63
2021/04/28 00:12:39;;;;;;;5.57;1.42;;;;;;;18.86;30.16;100812.16;4162029;28;20033;-64
2021/04/28 00:14:40;;;;;;;1.83;1.20;;;;;;;18.89;30.07;100823.53;4160566;28;20029;-63
2021/04/28 00:16:40;;;;;;;3.38;1.38;;;;;;;18.89;30.20;100806.88;4159288;28;20594;-63
2021/04/28 00:18:41;;;;;;;1.52;1.10;;;;;;;18.86;30.19;100815.78;4161098;28;20476;-64
2021/04/28 00:20:42;;;;;;;3.83;1.27;;;;;;;18.89;29.99;100806.88;4160603;28;20041;-63
2021/04/28 00:22:43;;;;;;;3.22;1.10;;;;;;;18.84;29.91;100812.44;4161090;28;20094;-64
2021/04/28 00:24:43;;;;;;;4.10;1.58;;;;;;;18.80;30.26;100796.63;4162390;28;20029;-64
2021/04/28 00:26:44;;;;;;;3.17;1.50;;;;;;;18.76;30.10;100801.91;4160712;28;20040;-64
2021/04/28 00:28:44;;;;;;;2.17;1.17;;;;;;;18.75;30.23;100797.47;4160923;28;20081;-64
2021/04/28 00:30:45;;;;;;;2.28;1.30;;;;;;;18.78;30.16;100799.69;4171435;28;20037;-64
2021/04/28 00:32:45;;;;;;;1.23;1.02;;;;;;;18.71;30.14;100791.66;4163548;28;20033;-64
2021/04/28 00:34:46;;;;;;;1.95;1.00;;;;;;;18.64;30.17;100793.88;4160992;28;20040;-64
2021/04/28 00:36:46;;;;;;;1.73;1.08;;;;;;;18.75;29.90;100789.16;4167527;28;20083;-64
2021/04/28 00:38:46;;;;;;;3.75;1.40;;;;;;;18.73;29.98;100791.38;4160516;28;20656;-63
2021/04/28 00:40:47;;;;;;;1.52;0.95;;;;;;;18.64;30.07;100793.06;4160001;28;20091;-63
2021/04/28 00:42:48;;;;;;;3.20;1.50;;;;;;;18.57;30.16;100787.81;4160548;28;20029;-63
2021/04/28 00:44:49;;;;;;;2.03;1.15;;;;;;;18.64;30.15;100785.56;4160917;28;20037;-62
2021/04/28 00:46:50;;;;;;;3.90;1.40;;;;;;;18.70;29.99;100786.38;4160034;28;20045;-62
2021/04/28 00:48:50;;;;;;;2.50;1.27;;;;;;;18.71;30.04;100782.50;4162387;28;20036;-63
2021/04/28 00:50:51;;;;;;;2.45;0.95;;;;;;;18.71;29.80;100785.28;4161231;28;20091;-62
2021/04/28 00:52:52;;;;;;;2.22;1.20;;;;;;;18.66;30.07;100780.59;4175720;28;20079;-62
2021/04/28 00:54:52;;;;;;;2.88;1.27;;;;;;;18.60;30.07;100781.69;4159899;28;20033;-62
2021/04/28 00:56:56;;;;;;;1.90;1.25;;;;;;;18.61;30.06;100776.97;4159319;28;20048;-62
2021/04/28 00:58:57;;;;;;;1.85;1.27;;;;;;;18.58;30.15;100770.03;4157791;28;20033;-62
2021/04/28 01:00:57;;;;;;;2.28;1.27;;;;;;;18.53;30.06;100778.38;4158290;28;20387;-62
2021/04/28 01:02:58;;;;;;;1.88;1.10;;;;;;;18.62;30.17;100767.56;4159902;28;20037;-61
2021/04/28 01:04:59;;;;;;;1.15;1.02;;;;;;;18.46;30.13;100770.34;4162651;28;20377;-62
2021/04/28 01:07:02;;;;;;;2.25;1.00;;;;;;;18.49;30.03;100774.47;4160966;28;20037;-59
2021/04/28 01:09:04;;;;;;;1.80;1.17;;;;;;;18.45;30.26;100771.44;4159447;28;20033;-62
2021/04/28 01:11:05;;;;;;;2.45;1.17;;;;;;;18.46;30.09;100762.03;4160063;28;20049;-62
2021/04/28 01:13:06;;;;;;;2.33;1.40;;;;;;;18.40;30.41;100768.69;4157408;28;20034;-62
2021/04/28 01:15:13;;;;;;;1.45;1.08;;;;;;;18.41;30.17;100763.97;4160362;28;20074;-62
2021/04/28 01:17:13;;;;;;;3.47;1.40;;;;;;;18.48;30.06;100762.56;4158618;28;20033;-61
2021/04/28 01:19:16;;;;;;;1.17;1.08;;;;;;;18.49;30.00;100760.63;4162576;28;20083;-61
2021/04/28 01:21:16;;;;;;;2.58;1.15;;;;;;;18.41;30.21;100763.97;4159149;28;20116;-61
2021/04/28 01:23:17;;;;;;;2.35;1.20;;;;;;;18.37;30.20;100758.16;4159303;28;20037;-61
2021/04/28 01:25:23;;;;;;;3.13;1.40;;;;;;;18.33;30.13;100757.03;4160753;28;20418;-61
2021/04/28 01:27:26;;;;;;;1.55;1.40;;;;;;;18.40;30.09;100757.59;4160665;28;20029;-62
2021/04/28 01:29:28;;;;;;;2.97;0.90;;;;;;;18.26;30.14;100748.97;4159275;28;20120;-61
2021/04/28 01:31:31;;;;;;;2.28;1.25;;;;;;;18.38;30.04;100748.72;4160877;28;20033;-61
2021/04/28 01:33:37;;;;;;;2.05;1.58;;;;;;;18.29;30.05;100742.88;4159350;28;20492;-62
2021/04/28 01:35:38;;;;;;;2.67;1.55;;;;;;;18.31;30.14;100756.50;4160730;28;20044;-62
2021/04/28 01:37:39;;;;;;;3.83;1.60;;;;;;;18.30;29.92;100749.25;4160313;28;20104;-62
2021/04/28 01:39:41;;;;;;;2.65;1.45;;;;;;;18.37;29.90;100755.38;4163040;28;20426;-63
2021/04/28 01:41:44;;;;;;;3.85;1.20;;;;;;;18.29;30.20;100742.03;4160433;28;20428;-63
2021/04/28 01:43:46;;;;;;;3.05;1.23;;;;;;;18.28;30.08;100748.72;4159513;28;20057;-63
2021/04/28 01:45:49;;;;;;;1.35;1.10;;;;;;;18.31;30.04;100742.63;4162492;28;20594;-63
2021/04/28 01:47:51;;;;;;;2.25;1.15;;;;;;;18.31;30.01;100745.41;4159255;28;20032;-63
2021/04/28 01:49:52;;;;;;;2.65;1.30;;;;;;;18.27;30.14;100747.84;4159798;28;20038;-62
2021/04/28 01:51:54;;;;;;;5.25;1.35;;;;;;;18.24;29.92;100747.59;4158526;28;20030;-62
2021/04/28 01:53:55;;;;;;;3.13;1.40;;;;;;;18.13;30.03;100739.25;4164380;28;20034;-63
2021/04/28 01:55:58;;;;;;;1.20;1.00;;;;;;;18.22;29.84;100750.63;4160133;28;20036;-63
2021/04/28 01:58:01;;;;;;;3.33;1.25;;;;;;;18.16;30.09;100744.25;4159280;28;20049;-63
2021/04/28 02:00:06;;;;;;;1.40;0.98;;;;;;;18.24;30.01;100748.41;4163197;28;20037;-63
2021/04/28 02:02:08;;;;;;;3.13;1.13;;;;;;;18.18;30.02;100742.06;4160731;28;20078;-63
2021/04/28 02:04:09;;;;;;;1.92;1.30;;;;;;;18.11;29.94;100746.22;4163005;28;20037;-63
2021/04/28 02:06:10;;;;;;;2.88;0.98;;;;;;;18.11;29.86;100729.59;4160960;28;20090;-63
2021/04/28 02:08:10;;;;;;;1.63;1.00;;;;;;;18.22;29.78;100742.31;4157519;28;20061;-64
2021/04/28 02:10:12;;;;;;;1.73;1.10;;;;;;;18.19;30.02;100740.09;4163425;28;20033;-63
2021/04/28 02:12:13;;;;;;;2.25;1.17;;;;;;;18.14;30.01;100740.13;4158942;28;20617;-64
2021/04/28 02:14:16;;;;;;;2.53;1.30;;;;;;;18.09;30.00;100734.56;4159471;28;20018;-63
2021/04/28 02:16:16;;;;;;;2.97;1.30;;;;;;;18.16;29.93;100735.94;4163966;28;20125;-64
2021/04/28 02:18:18;;;;;;;2.67;1.23;;;;;;;18.03;30.07;100730.97;4163390;28;20033;-63
2021/04/28 02:20:19;;;;;;;0.93;0.90;;;;;;;18.11;29.91;100730.41;4160964;28;20492;-62
2021/04/28 02:22:19;;;;;;;1.25;1.00;;;;;;;18.00;30.04;100724.03;4156455;28;20121;-63
2021/04/28 02:24:20;;;;;;;1.63;1.10;;;;;;;18.06;30.13;100726.81;4162151;28;20419;-63
2021/04/28 02:26:20;;;;;;;1.80;1.10;;;;;;;18.05;30.65;100725.16;4162129;28;20029;-63
2021/04/28 02:28:21;;;;;;;2.55;0.90;;;;;;;18.11;29.96;100722.09;4158125;28;20087;-64
2021/04/28 02:30:24;;;;;;;1.70;1.40;;;;;;;17.97;30.03;100727.34;4158745;28;20038;-64
2021/04/28 02:32:24;;;;;;;1.60;1.17;;;;;;;18.09;30.02;100723.47;4159496;28;20033;-63
2021/04/28 02:34:25;;;;;;;1.30;1.20;;;;;;;17.99;30.02;100719.59;4158298;28;20549;-62
2021/04/28 02:36:25;;;;;;;1.55;1.25;;;;;;;17.98;30.19;100717.97;4157875;28;20034;-62
2021/04/28 02:38:38;;;;;;;2.63;1.00;;;;;;;17.96;29.99;100709.06;4158881;28;20144;-62
2021/04/28 02:40:41;;;;;;;2.05;0.90;;;;;;;18.04;29.82;100718.75;4160162;28;20025;-62
2021/04/28 02:42:47;;;;;;;1.15;0.80;;;;;;;17.87;30.04;100709.91;4157690;28;20048;-61
2021/04/28 02:44:48;;;;;;;1.20;0.88;;;;;;;17.85;30.18;100701.06;4157317;28;20026;-64
2021/04/28 02:46:49;;;;;;;1.75;1.17;;;;;;;17.87;30.00;100701.59;4160115;28;20029;-65
2021/04/28 02:48:51;;;;;;;2.90;1.23;;;;;;;17.84;30.01;100693.84;4161875;28;20029;-64
2021/04/28 02:50:52;;;;;;;1.73;1.27;;;;;;;17.81;30.05;100696.06;4162420;28;20033;-63
2021/04/28 02:52:54;;;;;;;1.00;0.82;;;;;;;17.93;29.85;100695.78;4161662;28;20471;-63
2021/04/28 02:54:55;;;;;;;2.38;1.05;;;;;;;17.84;30.02;100686.34;4161965;28;20048;-64
2021/04/28 02:56:55;;;;;;;1.02;0.82;;;;;;;17.79;29.97;100691.91;4162285;28;20065;-64
2021/04/28 02:58:57;;;;;;;1.30;1.00;;;;;;;17.84;29.98;100700.19;4161107;28;20112;-64
2021/04/28 03:00:58;;;;;;;1.17;1.00;;;;;;;17.86;29.94;100686.09;4160922;28;20042;-64
2021/04/28 03:02:59;;;;;;;1.25;1.10;;;;;;;17.81;29.99;100686.91;4163316;28;20039;-63
2021/04/28 03:05:00;;;;;;;3.33;1.38;;;;;;;17.95;29.69;100689.97;4161770;28;20120;-63
2021/04/28 03:07:00;;;;;;;1.55;1.00;;;;;;;17.83;29.92;100681.94;4162310;28;20083;-63
2021/04/28 03:09:01;;;;;;;1.60;1.15;;;;;;;17.79;29.92;100675.28;4163930;28;20510;-63
2021/04/28 03:11:01;;;;;;;1.90;0.93;;;;;;;17.76;29.87;100684.97;4160447;28;20077;-64
2021/04/28 03:13:02;;;;;;;1.48;1.05;;;;;;;17.78;29.95;100684.69;4163055;28;20033;-64
2021/04/28 03:15:03;;;;;;;1.42;0.98;;;;;;;17.74;30.08;100680.84;4170963;28;20021;-63
2021/04/28 03:17:03;;;;;;;1.08;0.98;;;;;;;17.64;30.15;100682.47;4159479;28;20029;-63
2021/04/28 03:19:06;;;;;;;1.15;1.05;;;;;;;17.69;30.08;100676.13;4162958;28;20032;-63
2021/04/28 03:21:08;;;;;;;2.17;1.20;;;;;;;17.68;30.08;100681.94;4155798;28;20033;-63
2021/04/28 03:23:12;;;;;;;2.40;1.00;;;;;;;17.63;30.09;100678.03;4163122;28;20041;-64
2021/04/28 03:25:13;;;;;;;1.45;1.02;;;;;;;17.73;29.86;100682.75;4161342;28;20099;-64
2021/04/28 03:27:15;;;;;;;1.45;0.98;;;;;;;17.68;29.92;100676.41;4160643;28;20040;-64
2021/04/28 03:29:15;;;;;;;1.58;1.10;;;;;;;17.69;29.92;100673.34;4161269;28;20041;-64
2021/04/28 03:31:16;;;;;;;2.35;1.08;;;;;;;17.62;30.04;100672.78;4161863;28;20045;-64
2021/04/28 03:33:16;;;;;;;1.60;0.88;;;;;;;17.54;30.03;100676.09;4162353;28;20503;-64
2021/04/28 03:35:17;;;;;;;1.15;0.77;;;;;;;17.59;30.06;100676.09;4167384;28;20029;-63
2021/04/28 03:37:17;;;;;;;1.67;1.13;;;;;;;17.55;30.02;100670.28;4162505;28;20029;-63
2021/04/28 03:39:18;;;;;;;2.83;1.40;;;;;;;17.57;30.11;100678.31;4161309;28;20563;-63
2021/04/28 03:41:18;;;;;;;1.05;0.95;;;;;;;17.48;30.16;100679.94;4168895;28;20064;-63
2021/04/28 03:43:19;;;;;;;0.80;0.80;;;;;;;17.49;30.16;100676.03;4165066;28;20040;-64
2021/04/28 03:45:19;;;;;;;2.20;0.80;;;;;;;17.45;30.43;100675.75;4161558;28;20044;-63
2021/04/28 03:47:19;;;;;;;1.58;0.88;;;;;;;17.45;29.98;100671.06;4169039;28;20033;-62
2021/04/28 03:49:20;;;;;;;1.48;0.73;;;;;;;17.38;30.08;100676.03;4161438;28;20037;-62
2021/04/28 03:51:22;;;;;;;1.25;0.80;;;;;;;17.45;30.18;100681.31;4160966;28;20029;-62
2021/04/28 03:53:22;;;;;;;1.23;1.13;;;;;;;17.39;30.31;100680.44;4158763;28;20108;-61
2021/04/28 03:55:23;;;;;;;0.75;0.70;;;;;;;17.41;30.33;100677.41;4159952;28;20370;-61
2021/04/28 03:57:23;;;;;;;1.02;0.90;;;;;;;17.55;30.05;100677.75;4160246;28;20060;-61
2021/04/28 03:59:23;;;;;;;1.20;1.10;;;;;;;17.44;30.23;100674.09;4160058;28;20029;-62
2021/04/28 04:01:24;;;;;;;1.15;0.77;;;;;;;17.44;30.04;100672.19;4161270;28;20095;-62
2021/04/28 04:03:25;;;;;;;1.00;0.90;;;;;;;17.43;29.99;100676.03;4160070;28;20479;-62
2021/04/28 04:05:25;;;;;;;0.82;0.77;;;;;;;17.37;30.08;100676.31;4161602;28;20048;-61
2021/04/28 04:07:27;;;;;;;0.82;0.82;;;;;;;17.40;30.22;100671.06;4158615;28;20159;-63
2021/04/28 04:09:27;;;;;;;2.55;0.90;;;;;;;17.33;30.16;100670.47;4160353;28;20068;-63
2021/04/28 04:11:29;;;;;;;1.33;1.23;;;;;;;17.38;30.06;100676.03;4161699;28;20037;-64
2021/04/28 04:13:30;;;;;;;1.20;1.00;;;;;;;17.32;30.08;100668.81;4162313;28;20038;-64
2021/04/28 04:15:30;;;;;;;1.42;0.60;;;;;;;17.32;30.08;100670.75;4160757;28;20045;-64
2021/04/28 04:17:31;;;;;;;2.22;1.02;;;;;;;17.39;29.99;100674.09;4161372;28;20095;-64
2021/04/28 04:19:31;;;;;;;0.80;0.70;;;;;;;17.31;30.08;100669.94;4168434;28;20408;-64
2021/04/28 04:21:32;;;;;;;1.60;0.85;;;;;;;17.34;30.13;100669.38;4162213;28;20167;-65
2021/04/28 04:23:32;;;;;;;1.60;1.10;;;;;;;17.25;30.17;100669.06;4167958;28;20056;-65
2021/04/28 04:25:33;;;;;;;1.25;0.90;;;;;;;17.29;30.12;100672.97;4161607;28;20075;-66
2021/04/28 04:27:33;;;;;;;1.00;0.80;;;;;;;17.33;30.01;100667.69;4161661;28;20029;-65
2021/04/28 04:29:34;;;;;;;1.20;1.10;;;;;;;17.32;30.14;100665.22;4160118;28;20484;-65
2021/04/28 04:31:35;;;;;;;3.08;1.25;;;;;;;17.32;30.01;100674.38;4159852;28;20036;-65
2021/04/28 04:33:35;;;;;;;0.80;0.80;;;;;;;17.27;30.05;100669.66;4161781;28;20116;-65
2021/04/28 04:35:37;;;;;;;1.65;1.30;;;;;;;17.30;29.92;100673.78;4161424;28;20033;-65
2021/04/28 04:37:38;;;;;;;1.15;0.77;;;;;;;17.22;30.17;100672.38;4156670;28;20052;-63
2021/04/28 04:39:38;;;;;;;1.88;0.98;;;;;;;17.15;30.29;100677.34;4161278;28;20033;-63
2021/04/28 04:41:39;;;;;;;0.98;0.90;;;;;;;17.20;30.35;100673.78;4159921;28;20049;-63
2021/04/28 04:43:39;;;;;;;1.30;1.02;;;;;;;17.21;30.00;100670.72;4160509;28;20045;-63
2021/04/28 04:45:40;;;;;;;1.48;0.90;;;;;;;17.21;30.18;100675.41;4161083;28;20064;-64
2021/04/28 04:47:40;;;;;;;1.13;0.68;;;;;;;17.20;30.19;100676.53;4161991;28;20408;-63
2021/04/28 04:49:42;;;;;;;1.05;0.80;;;;;;;17.21;30.02;100672.66;4162446;28;20490;-62
2021/04/28 04:51:43;;;;;;;1.05;0.98;;;;;;;17.23;30.09;100674.06;4159845;28;20492;-62
2021/04/28 04:53:43;;;;;;;0.68;0.68;;;;;;;17.20;29.99;100671.81;4158530;28;20092;-66
2021/04/28 04:55:44;;;;;;;1.10;1.00;;;;;;;17.15;30.13;100658.00;4159720;28;20450;-66
2021/04/28 04:57:44;;;;;;;1.02;0.88;;;;;;;17.15;30.16;100666.28;4159554;28;20026;-66
2021/04/28 04:59:44;;;;;;;0.70;0.70;;;;;;;17.25;30.07;100668.25;4161970;28;20960;-62
2021/04/28 05:01:45;;;;;;;0.88;0.82;;;;;;;17.20;29.97;100663.53;4159275;28;20026;-66
2021/04/28 05:03:45;;;;;;;1.48;0.90;;;;;;;17.15;30.25;100662.66;4159061;28;20056;-66
2021/04/28 05:05:46;;;;;;;1.08;0.80;;;;;;;17.14;30.23;100670.16;4161636;28;20033;-66
2021/04/28 05:07:46;;;;;;;1.48;0.90;;;;;;;17.07;30.33;100666.81;4161628;28;20044;-62
2021/04/28 05:09:46;;;;;;;1.90;0.98;;;;;;;17.06;30.19;100671.50;4161380;28;20056;-63
2021/04/28 05:11:47;;;;;;;0.90;0.60;;;;;;;17.05;30.27;100667.09;4158879;28;20045;-63
2021/04/28 05:13:48;;;;;;;0.70;0.60;;;;;;;16.93;30.06;100658.22;4160689;28;20036;-63
2021/04/28 05:15:49;;;;;;;0.98;0.63;;;;;;;16.99;30.36;100662.66;4159606;28;20042;-63
2021/04/28 05:17:49;;;;;;;1.27;0.85;;;;;;;16.97;30.37;100670.38;4161362;28;20029;-63
2021/04/28 05:19:50;;;;;;;0.65;0.60;;;;;;;16.83;30.68;100649.84;4161428;28;20032;-64
2021/04/28 05:21:50;;;;;;;0.77;0.60;;;;;;;17.00;30.30;100667.06;4160204;28;20029;-63
2021/04/28 05:23:51;;;;;;;0.68;0.68;;;;;;;16.96;30.52;100663.19;4159981;28;20041;-64
2021/04/28 05:25:51;;;;;;;2.20;1.23;;;;;;;16.94;30.35;100665.38;4159226;28;20025;-63
2021/04/28 05:27:51;;;;;;;1.40;0.80;;;;;;;16.97;30.28;100672.31;4162573;28;20075;-63
2021/04/28 05:29:55;;;;;;;0.95;0.65;;;;;;;17.00;30.37;100669.81;4159542;28;20136;-64
2021/04/28 05:31:56;;;;;;;1.00;0.80;;;;;;;16.99;30.36;100668.19;4159563;28;20037;-63
2021/04/28 05:33:56;;;;;;;0.90;0.60;;;;;;;17.01;30.24;100665.16;4159505;28;20060;-63
2021/04/28 05:35:57;;;;;;;2.53;1.40;;;;;;;17.06;30.31;100662.38;4161380;28;20030;-63
2021/04/28 05:37:57;;;;;;;0.77;0.77;;;;;;;16.98;30.17;100658.22;4161400;28;20037;-63
2021/04/28 05:39:57;;;;;;;0.98;0.82;;;;;;;17.00;30.24;100657.94;4163616;28;20033;-63
2021/04/28 05:41:58;;;;;;;0.65;0.65;;;;;;;16.97;30.11;100664.84;4160529;28;20048;-63
2021/04/28 05:43:58;;;;;;;1.27;1.02;;;;;;;16.90;30.27;100665.09;4159653;28;20095;-65
2021/04/28 05:46:01;;;;;;;1.13;0.73;;;;;;;16.98;30.28;100665.69;4156579;28;20036;-64
2021/04/28 05:48:01;;;;;;;0.88;0.82;;;;;;;17.00;30.16;100658.75;4159027;28;20029;-65
2021/04/28 05:50:04;;;;;;;1.10;1.00;;;;;;;16.95;30.37;100658.75;4155534;28;20803;-65
2021/04/28 05:52:05;;;;;;;0.80;0.73;;;;;;;16.99;30.21;100665.41;4159166;28;20063;-65
2021/04/28 05:54:06;;;;;;;2.15;0.88;;;;;;;17.00;30.09;100655.19;4160481;28;20065;-65
2021/04/28 05:56:07;;;;;;;1.38;0.80;;;;;;;16.93;30.43;100663.72;4160249;28;20037;-65
2021/04/28 05:58:08;;;;;;;0.98;0.90;;;;;;;16.94;30.19;100659.84;4157056;28;20040;-65
2021/04/28 06:00:13;;;;;;;1.33;0.98;;;;;;;16.93;30.20;100649.91;4159004;28;20037;-68
2021/04/28 06:02:13;;;;;;;1.05;0.90;;;;;;;16.88;30.41;100649.88;4157453;28;20033;-64
2021/04/28 06:04:15;;;;;;;1.73;1.00;;;;;;;16.99;30.18;100651.59;4155984;28;20806;-64
2021/04/28 06:06:16;;;;;;;1.25;0.90;;;;;;;16.97;30.26;100653.78;4156933;28;20415;-65
2021/04/28 06:08:17;;;;;;;1.42;0.88;;;;;;;16.92;30.34;100657.34;4157618;28;20033;-65
2021/04/28 06:10:18;;;;;;;1.40;0.60;;;;;;;16.95;30.42;100647.69;4159525;28;20033;-65
2021/04/28 06:12:18;;;;;;;1.10;0.60;;;;;;;16.98;30.28;100649.09;4163707;28;20048;-63
2021/04/28 06:14:19;;;;;;;1.27;1.08;;;;;;;16.93;30.36;100647.97;4160945;28;20037;-64
2021/04/28 06:16:19;;;;;;;0.80;0.80;;;;;;;16.91;30.52;100649.31;4162468;28;20041;-63
2021/04/28 06:18:20;;;;;;;2.15;0.80;;;;;;;16.97;30.25;100644.66;4164272;28;20589;-63
2021/04/28 06:20:20;;;;;;;1.02;0.60;;;;;;;16.95;30.28;100642.16;4161957;28;20029;-64
2021/04/28 06:22:21;;;;;;;2.47;0.82;;;;;;;16.99;30.30;100646.06;4163278;28;20098;-64
2021/04/28 06:24:21;;;;;;;1.20;0.68;;;;;;;17.02;30.27;100639.13;4160897;28;20036;-65
2021/04/28 06:26:22;;;;;;;1.77;0.93;;;;;;;17.05;30.18;100642.22;4153218;28;20036;-64
2021/04/28 06:28:22;;;;;;;1.25;0.73;;;;;;;17.11;30.16;100638.31;4162715;28;20045;-63
2021/04/28 06:30:22;;;;;;;1.17;1.08;;;;;;;17.31;29.99;100635.91;4161778;28;20542;-63
2021/04/28 06:32:23;;;;;;;3.90;1.00;;;;;;;17.39;30.19;100638.94;4159628;28;20029;-63
2021/04/28 06:34:23;;;;;;;1.20;1.10;;;;;;;17.46;30.38;100650.59;4161072;28;20511;-63
2021/04/28 06:36:24;;;;;;;3.47;0.95;;;;;;;17.52;30.03;100651.47;4159747;28;20119;-63
2021/04/28 06:38:24;;;;;;;0.88;0.80;;;;;;;17.55;30.48;100653.69;4155516;28;20311;-63
2021/04/28 06:40:24;;;;;;;3.90;0.88;;;;;;;17.52;30.49;100656.16;4160656;28;20029;-63
2021/04/28 06:42:25;;;;;;;1.15;0.70;;;;;;;17.50;30.60;100652.84;4159258;28;20042;-63
2021/04/28 06:44:25;;;;;;;1.23;0.80;;;;;;;17.50;30.42;100650.88;4158665;28;20033;-63
2021/04/28 06:46:26;;;;;;;0.95;0.95;;;;;;;17.48;30.65;100658.63;4157410;28;20040;-63
2021/04/28 06:48:26;;;;;;;4.57;0.80;;;;;;;17.45;30.62;100654.44;4162090;28;20517;-63
2021/04/28 06:50:27;;;;;;;4.38;0.88;;;;;;;17.50;30.56;100650.06;4157516;28;20067;-64
2021/04/28 06:52:27;;;;;;;2.65;1.08;;;;;;;17.43;30.53;100650.31;4157307;28;20041;-63
2021/04/28 06:54:28;;;;;;;2.75;0.98;;;;;;;17.44;30.75;100655.56;4159630;28;20479;-63
2021/04/28 06:56:29;;;;;;;1.80;1.00;;;;;;;17.47;30.59;100656.94;4159409;28;20030;-63
2021/04/28 06:58:32;;;;;;;1.10;0.90;;;;;;;17.48;30.65;100649.50;4159760;28;20620;-64
2021/04/28 07:00:32;;;;;;;3.95;1.13;;;;;;;17.52;30.76;100658.91;4157577;28;20072;-63
2021/04/28 07:02:32;;;;;;;3.25;1.10;;;;;;;17.53;30.82;100660.59;4157334;28;20396;-64
2021/04/28 07:04:34;;;;;;;2.60;1.20;;;;;;;17.57;30.60;100661.72;4159464;28;20037;-64
2021/04/28 07:06:35;;;;;;;1.33;0.90;;;;;;;17.55;30.82;100662.00;4155141;28;20060;-62
2021/04/28 07:08:36;;;;;;;3.20;0.75;;;;;;;17.56;30.95;100660.88;4158462;28;20120;-61
2021/04/28 07:10:37;;;;;;;1.58;0.98;;;;;;;17.54;31.00;100662.25;4168562;28;20048;-61
2021/04/28 07:12:37;;;;;;;1.80;0.88;;;;;;;17.54;30.91;100667.81;4158171;28;20389;-60
2021/04/28 07:14:37;;;;;;;2.20;1.35;;;;;;;17.54;30.69;100654.78;4159772;28;20100;-62
2021/04/28 07:16:38;;;;;;;2.10;0.95;;;;;;;17.57;30.79;100661.72;4159354;28;20033;-62
2021/04/28 07:18:39;;;;;;;4.40;1.35;;;;;;;17.59;30.71;100656.72;4157357;28;20032;-62
2021/04/28 07:20:39;;;;;;;6.05;1.13;;;;;;;17.54;30.91;100657.53;4158360;28;20048;-62
2021/04/28 07:22:40;;;;;;;4.53;1.33;;;;;;;17.57;30.83;100657.00;4158271;28;20258;-63
2021/04/28 07:24:40;;;;;;;2.50;0.85;;;;;;;17.61;30.84;100651.72;4157918;28;20579;-62
2021/04/28 07:26:40;;;;;;;2.90;1.15;;;;;;;17.58;30.94;100655.91;4157900;28;20037;-62
2021/04/28 07:28:41;;;;;;;5.68;1.10;;;;;;;17.44;31.72;100652.81;4153215;28;20714;-61
2021/04/28 07:30:42;;;;;;;3.47;0.93;;;;;;;17.52;33.69;100657.00;4157037;28;20036;-61
2021/04/28 07:32:42;;;;;;;3.10;1.42;;;;;;;17.61;31.16;100660.88;4156670;28;20038;-55
2021/04/28 07:34:43;;;;;;;3.20;0.82;;;;;;;17.75;31.13;100658.41;4161186;28;20025;-57
2021/04/28 07:36:45;;;;;;;9.52;1.50;;;;;;;17.74;31.03;100658.69;4160357;28;20029;-51
2021/04/28 07:38:45;;;;;;;9.18;1.63;;;;;;;17.87;31.19;100665.59;4160819;28;20071;-58
2021/04/28 07:40:46;;;;;;;2.13;1.05;;;;;;;17.82;31.51;100647.88;4161069;28;20041;-58
2021/04/28 07:42:47;;;;;;;7.95;1.13;;;;;;;18.02;31.17;100660.06;4169738;28;20101;-54
2021/04/28 07:44:47;;;;;;;7.40;1.13;;;;;;;18.08;31.31;100653.41;4161039;28;20071;-54
2021/04/28 07:46:48;;;;;;;4.15;1.27;;;;;;;17.90;31.13;100653.97;4160373;28;20033;-66
2021/04/28 07:48:48;;;;;;;5.00;1.33;;;;;;;17.89;31.31;100652.31;4154566;28;20026;-66
2021/04/28 07:50:49;;;;;;;7.20;1.27;;;;;;;18.00;31.49;100640.13;4161829;28;20349;-67
2021/04/28 07:52:49;;;;;;;8.32;1.10;;;;;;;17.96;32.44;100630.72;4166341;28;20068;-48
2021/04/28 07:54:50;;;;;;;2.97;1.10;;;;;;;18.18;32.02;100642.31;4159996;28;20793;-51
2021/04/28 07:56:50;;;;;;;4.60;1.20;;;;;;;18.30;30.92;100650.34;4160265;28;20025;-47
2021/04/28 07:58:52;;;;;;;3.83;1.35;;;;;;;18.28;31.20;100643.41;4160428;28;20041;-50
2021/04/28 08:00:52;;;;;;;3.95;0.98;;;;;;;18.20;31.23;100639.28;4159847;28;20103;-46
2021/04/28 08:02:52;;;;;;;3.35;1.30;;;;;;;18.41;30.94;100639.25;4159701;28;20030;-51
2021/04/28 08:04:53;;;;;;;3.35;1.48;;;;;;;18.42;30.68;100641.75;4158919;28;20055;-45
2021/04/28 08:06:53;;;;;;;2.28;1.05;;;;;;;18.37;30.87;100654.78;4160946;28;20111;-47
2021/04/28 08:08:53;;;;;;;4.03;0.93;;;;;;;18.33;30.54;100647.03;4156784;28;20029;-49
2021/04/28 08:10:54;;;;;;;4.28;1.02;;;;;;;18.34;30.42;100647.88;4161791;28;20037;-49
2021/04/28 08:12:55;;;;;;;1.35;0.82;;;;;;;18.33;30.65;100640.66;4158661;28;20053;-46
2021/04/28 08:14:55;;;;;;;3.40;1.42;;;;;;;18.34;30.54;100642.34;4161475;28;20115;-47
2021/04/28 08:16:55;;;;;;;7.65;1.17;;;;;;;;;;4159643;28;20451;-49
2021/04/28 08:18:56;;;;;;;1.05;0.88;;;;;;;18.34;30.50;100645.09;4159792;28;20029;-51
2021/04/28 08:20:56;;;;;;;3.83;0.95;;;;;;;18.35;30.67;100636.50;4166972;28;20025;-47
2021/04/28 08:22:57;;;;;;;2.67;1.20;;;;;;;18.39;30.67;100647.84;4162035;28;20059;-52
2021/04/28 08:24:57;;;;;;;3.30;0.98;;;;;;;18.39;30.42;100650.63;4157500;28;20029;-45
2021/04/28 08:26:58;;;;;;;2.60;0.80;;;;;;;18.37;30.49;100644.53;4161139;28;20033;-48
2021/04/28 08:28:58;;;;;;;1.48;1.27;;;;;;;18.41;30.26;100647.56;4157610;28;20026;-49
2021/04/28 08:30:59;;;;;;;4.68;1.23;;;;;;;18.41;30.32;100647.56;4162019;28;20025;-50
2021/04/28 08:32:59;;;;;;;1.77;1.15;;;;;;;18.44;30.57;100642.28;4163438;28;20033;-47
2021/04/28 08:35:00;;;;;;;2.95;1.52;;;;;;;18.44;30.29;100649.78;4160592;28;20514;-44
2021/04/28 08:37:00;;;;;;;2.78;1.25;;;;;;;18.44;30.23;100635.94;4160006;28;20116;-49
2021/04/28 08:39:08;;;;;;;1.58;1.10;;;;;;;18.47;30.34;100627.88;4157188;28;20118;-51
2021/04/28 08:41:11;;;;;;;1.77;1.38;;;;;;;18.48;30.23;100632.31;4158698;28;20034;-49
2021/04/28 08:43:12;;;;;;;1.17;1.10;;;;;;;18.49;30.03;100636.75;4160173;28;20033;-46
2021/04/28 08:45:14;;;;;;;1.92;0.95;;;;;;;18.34;30.33;100631.25;4159247;28;20571;-55
2021/04/28 08:47:15;;;;;;;6.68;1.10;;;;;;;18.93;30.33;100637.16;4157463;28;20025;-58
2021/04/28 08:49:15;;;;;;;1.00;0.90;;;;;;;19.54;29.78;100627.63;4157190;28;20715;-59
2021/04/28 08:51:17;;;;;;;2.22;0.88;;;;;;;20.06;29.95;100639.19;4158978;28;20033;-60
2021/04/28 08:53:18;;;;;;;0.93;0.65;;;;;;;20.44;29.49;100633.81;4158602;28;20796;-52
2021/04/28 08:55:19;;;;;;;1.25;0.80;;;;;;;20.78;28.87;100627.31;4161359;28;20037;-54
2021/04/28 08:57:19;;;;;;;0.75;0.65;;;;;;;21.04;28.94;100633.38;4157718;28;20033;-51
2021/04/28 08:59:20;;;;;;;0.80;0.70;;;;;;;21.27;28.75;100626.09;4156602;28;20044;-56
2021/04/28 09:01:29;;;;;;;1.15;1.02;;;;;;;21.42;28.36;100632.59;4151338;28;20041;-53
2021/04/28 09:03:40;;;;;;;3.78;1.00;;;;;;;20.94;28.84;100631.53;4157467;28;20030;-49
2021/04/28 09:05:42;;;;;;;3.92;0.95;;;;;;;20.89;29.62;100626.06;4164144;28;20124;-59
2021/04/28 09:07:44;;;;;;;3.17;0.95;;;;;;;20.69;29.18;100631.88;4157489;28;20045;-60
2021/04/28 09:09:59;;;;;;;2.67;0.90;;;;;;;20.90;34.97;100627.72;4161854;28;20029;-52
2021/04/28 09:11:59;;;;;;;6.05;1.63;;;;;;;20.84;29.99;100626.13;4156060;28;20519;-55
2021/04/28 09:14:20;;;;;;;5.03;1.27;;;;;;;20.81;30.99;100629.50;4158372;28;20059;-58
2021/04/28 09:16:20;;;;;;;;;;;;;;;20.89;29.51;100620.50;4161354;28;20140;-47
2021/04/28 09:18:35;;;;;;;3.70;0.85;;;;;;;20.75;30.13;100619.56;4157858;28;19968;-50
2021/04/28 09:20:44;;;;;;;1.10;0.70;;;;;;;20.69;29.82;100609.63;4159954;28;20037;-61
2021/04/28 09:22:50;;;;;;;3.47;0.80;;;;;;;20.71;29.51;100610.97;4158747;28;20106;-60
2021/04/28 09:24:53;;;;;;;7.70;0.80;;;;;;;20.62;29.79;100610.81;4159154;28;20033;-58